createdAt,value
2022-08-05T00:00:22.805Z,28.98
2022-08-05T00:01:27.981Z,28.98
2022-08-05T00:02:22.879Z,28.98
2022-08-05T00:03:22.752Z,28.97
2022-08-05T00:04:22.742Z,28.97
2022-08-05T00:06:02.011Z,28.97
2022-08-05T00:06:32.243Z,28.96
2022-08-05T00:07:58.884Z,28.94
2022-08-05T00:08:34.681Z,28.96
2022-08-05T00:09:22.717Z,28.96
2022-08-05T00:10:22.689Z,28.94
2022-08-05T00:11:34.766Z,28.89
2022-08-05T00:12:22.673Z,28.78
2022-08-05T00:13:39.335Z,28.56
2022-08-05T00:14:22.667Z,28.38
2022-08-05T00:15:55.271Z,28.25
2022-08-05T00:16:35.596Z,28.07
2022-08-05T00:17:22.613Z,27.98
2022-08-05T00:18:22.881Z,27.89
2022-08-05T00:19:24.654Z,27.86
2022-08-05T00:20:22.600Z,27.85
2022-08-05T00:21:22.565Z,27.82
2022-08-05T00:22:22.563Z,27.75
2022-08-05T00:23:44.443Z,27.74
2022-08-05T00:24:24.831Z,27.71
2022-08-05T00:25:22.520Z,27.64
2022-08-05T00:26:22.626Z,27.52
2022-08-05T00:27:22.593Z,27.47
2022-08-05T00:28:29.440Z,27.42
2022-08-05T00:29:25.246Z,27.40
2022-08-05T00:30:29.266Z,27.39
2022-08-05T00:31:53.635Z,27.40
2022-08-05T00:32:22.461Z,27.35
2022-08-05T00:34:56.203Z,27.33
2022-08-05T00:35:09.465Z,27.30
2022-08-05T00:35:22.418Z,27.30
2022-08-05T00:37:13.024Z,27.30
2022-08-05T00:37:22.408Z,27.27
2022-08-05T00:38:28.941Z,27.27
2022-08-05T00:39:22.467Z,27.27
2022-08-05T00:40:28.409Z,27.25
2022-08-05T00:41:22.351Z,27.21
2022-08-05T00:42:31.727Z,27.21
2022-08-05T00:43:22.339Z,27.20
2022-08-05T00:44:23.354Z,27.17
2022-08-05T00:45:25.035Z,27.12
2022-08-05T00:46:36.870Z,27.14
2022-08-05T00:47:22.312Z,27.14
2022-08-05T00:48:27.557Z,27.14
2022-08-05T00:49:22.280Z,27.15
2022-08-05T00:50:22.254Z,27.15
2022-08-05T00:51:51.975Z,27.15
2022-08-05T00:52:28.518Z,27.17
2022-08-05T00:53:59.859Z,27.17
2022-08-05T00:54:22.220Z,27.12
2022-08-05T00:55:22.211Z,27.12
2022-08-05T00:56:22.714Z,27.14
2022-08-05T00:57:22.407Z,27.15
2022-08-05T00:58:22.173Z,27.17
2022-08-05T00:59:22.169Z,27.17
2022-08-05T01:00:22.149Z,27.18
2022-08-05T01:01:42.150Z,27.20
2022-08-05T01:02:22.181Z,27.21
2022-08-05T01:03:23.210Z,27.22
2022-08-05T01:04:26.874Z,27.22
2022-08-05T01:05:22.110Z,27.25
2022-08-05T01:06:22.089Z,27.26
2022-08-05T01:07:22.108Z,27.27
2022-08-05T01:08:42.369Z,27.30
2022-08-05T01:09:22.063Z,27.29
2022-08-05T05:00:58.146Z,22.28
2022-08-05T05:02:08.263Z,22.30
2022-08-05T05:03:03.740Z,22.32
2022-08-05T05:03:58.962Z,22.33
2022-08-05T05:05:01.968Z,22.38
2022-08-05T05:06:36.632Z,22.41
2022-08-05T05:06:58.934Z,22.43
2022-08-05T05:08:01.088Z,22.45
2022-08-05T05:08:58.905Z,22.44
2022-08-05T05:09:58.926Z,22.43
2022-08-05T05:10:58.895Z,22.45
2022-08-05T05:12:02.866Z,22.50
2022-08-05T05:12:58.867Z,22.51
2022-08-05T05:13:58.857Z,22.53
2022-08-05T05:14:58.857Z,22.59
2022-08-05T05:16:02.298Z,22.57
2022-08-05T05:18:09.145Z,22.60
2022-08-05T05:19:19.531Z,22.59
2022-08-05T05:20:10.125Z,22.55
2022-08-05T05:21:10.111Z,22.57
2022-08-05T05:22:23.923Z,22.54
2022-08-05T05:23:19.624Z,22.59
2022-08-05T05:24:10.076Z,22.59
2022-08-05T05:25:16.738Z,22.57
2022-08-05T05:26:10.073Z,22.62
2022-08-05T05:27:10.045Z,22.63
2022-08-05T05:28:10.038Z,22.60
2022-08-05T05:29:14.634Z,22.60
2022-08-05T05:30:15.708Z,22.59
2022-08-05T05:31:09.995Z,22.60
2022-08-05T05:32:12.392Z,22.59
2022-08-05T05:33:16.906Z,22.63
2022-08-05T05:34:09.980Z,22.65
2022-08-05T05:35:09.954Z,22.66
2022-08-05T05:36:09.936Z,22.68
2022-08-05T05:37:09.923Z,22.70
2022-08-05T05:38:13.545Z,22.69
2022-08-05T05:39:11.044Z,22.68
2022-08-05T05:40:09.899Z,22.69
2022-08-05T05:41:09.896Z,22.70
2022-08-05T05:42:09.938Z,22.72
2022-08-05T05:43:09.898Z,22.75
2022-08-05T05:44:35.715Z,22.76
2022-08-05T05:45:09.856Z,22.80
2022-08-05T05:46:17.231Z,22.83
2022-08-05T05:47:13.105Z,22.85
2022-08-05T05:48:09.921Z,22.88
2022-08-05T05:49:22.324Z,22.90
2022-08-05T05:50:09.793Z,22.88
2022-08-05T05:51:15.035Z,22.90
2022-08-05T05:52:12.997Z,22.91
2022-08-05T05:53:21.997Z,22.94
2022-08-05T05:54:11.517Z,22.96
2022-08-05T05:55:13.322Z,22.96
2022-08-05T05:56:09.738Z,22.99
2022-08-05T05:57:13.804Z,22.99
2022-08-05T05:58:09.713Z,22.98
2022-08-05T05:59:09.711Z,22.99
2022-08-05T06:00:10.236Z,22.98
2022-08-05T06:01:12.753Z,22.99
2022-08-05T06:02:09.661Z,22.98
2022-08-05T06:03:40.308Z,22.98
2022-08-05T06:04:11.938Z,22.98
2022-08-05T06:05:10.464Z,22.98
2022-08-05T06:06:09.624Z,22.94
2022-08-05T06:07:10.597Z,22.96
2022-08-05T06:08:09.584Z,22.94
2022-08-05T06:09:09.618Z,22.94
2022-08-05T06:10:10.516Z,22.96
2022-08-05T06:11:09.572Z,22.96
2022-08-05T06:12:09.822Z,22.96
2022-08-05T06:13:09.541Z,22.96
2022-08-05T06:14:09.566Z,22.96
2022-08-05T06:15:12.392Z,22.96
2022-08-05T06:16:30.287Z,22.99
2022-08-05T06:17:22.097Z,23.00
2022-08-05T06:18:09.495Z,23.00
2022-08-05T06:19:09.477Z,23.03
2022-08-05T06:20:09.751Z,23.06
2022-08-05T06:21:16.601Z,23.05
2022-08-05T06:22:09.454Z,23.05
2022-08-05T06:23:09.432Z,23.06
2022-08-05T06:24:12.147Z,23.05
2022-08-05T06:25:24.267Z,23.06
2022-08-05T06:26:13.765Z,23.05
2022-08-05T06:27:17.356Z,23.06
2022-08-05T06:28:21.128Z,23.09
2022-08-05T06:29:25.410Z,23.10
2022-08-05T06:30:17.673Z,23.13
2022-08-05T06:31:11.093Z,23.15
2022-08-05T06:32:20.983Z,23.17
2022-08-05T06:33:09.985Z,23.17
2022-08-05T06:34:09.358Z,23.20
2022-08-05T06:35:15.473Z,23.24
2022-08-05T06:36:10.274Z,23.25
2022-08-05T06:37:09.278Z,23.27
2022-08-05T06:38:11.613Z,23.28
2022-08-05T06:39:09.295Z,23.28
2022-08-05T06:40:09.273Z,23.25
2022-08-05T06:41:09.243Z,23.25
2022-08-05T06:42:09.233Z,23.27
2022-08-05T06:43:57.544Z,23.27
2022-08-05T06:44:09.227Z,23.31
2022-08-05T06:45:09.597Z,23.32
2022-08-05T06:46:09.211Z,23.34
2022-08-05T06:47:10.311Z,23.36
2022-08-05T06:48:36.410Z,23.37
2022-08-05T06:49:09.220Z,23.37
2022-08-05T06:50:09.148Z,23.37
2022-08-05T06:51:09.559Z,23.36
2022-08-05T06:52:37.460Z,23.37
2022-08-05T06:53:11.580Z,23.37
2022-08-05T06:54:09.109Z,23.44
2022-08-05T06:55:09.098Z,23.41
2022-08-05T06:56:25.964Z,23.43
2022-08-05T06:57:57.583Z,23.44
2022-08-05T06:58:19.831Z,23.47
2022-08-05T06:59:09.868Z,23.48
2022-08-05T07:00:09.633Z,23.46
2022-08-05T07:01:09.042Z,23.46
2022-08-05T07:02:09.053Z,23.48
2022-08-05T07:03:09.745Z,23.47
2022-08-05T07:04:08.989Z,23.44
2022-08-05T07:05:14.319Z,23.48
2022-08-05T07:06:13.903Z,23.48
2022-08-05T07:07:08.960Z,23.51
2022-08-05T07:08:10.938Z,23.54
2022-08-05T07:09:08.960Z,23.54
2022-08-05T07:10:08.925Z,23.54
2022-08-05T07:11:15.394Z,23.51
2022-08-05T07:12:08.903Z,23.51
2022-08-05T07:13:08.913Z,23.55
2022-08-05T07:14:20.319Z,23.56
2022-08-05T07:15:08.879Z,23.61
2022-08-05T07:16:08.867Z,23.62
2022-08-05T07:18:01.317Z,23.62
2022-08-05T07:18:14.662Z,23.62
2022-08-05T07:19:08.844Z,23.63
2022-08-05T07:20:32.169Z,23.66
2022-08-05T07:21:08.808Z,23.65
2022-08-05T07:22:08.804Z,23.66
2022-08-05T07:23:08.794Z,23.66
2022-08-05T07:24:11.123Z,23.69
2022-08-05T07:25:22.833Z,23.73
2022-08-05T07:26:08.775Z,23.71
2022-08-05T07:27:08.802Z,23.73
2022-08-05T07:28:11.611Z,23.73
2022-08-05T07:29:08.729Z,23.74
2022-08-05T07:30:28.052Z,23.73
2022-08-05T07:31:08.706Z,23.76
2022-08-05T07:32:08.691Z,23.77
2022-08-05T07:33:09.339Z,23.77
2022-08-05T07:34:08.693Z,23.77
2022-08-05T07:35:55.830Z,23.77
2022-08-05T07:36:20.377Z,23.78
2022-08-05T07:37:09.167Z,23.80
2022-08-05T07:38:12.351Z,23.80
2022-08-05T07:39:08.696Z,23.81
2022-08-05T07:40:31.981Z,23.80
2022-08-05T07:42:09.287Z,23.80
2022-08-05T07:42:19.415Z,23.80
2022-08-05T07:43:20.217Z,23.81
2022-08-05T07:44:18.638Z,23.83
2022-08-05T07:45:09.423Z,23.83
2022-08-05T07:46:24.253Z,23.86
2022-08-05T07:47:10.137Z,23.86
2022-08-05T07:48:08.505Z,23.87
2022-08-05T07:49:08.513Z,23.91
2022-08-05T07:50:08.485Z,23.91
2022-08-05T07:51:08.669Z,23.93
2022-08-05T07:52:08.838Z,23.93
2022-08-05T07:53:08.467Z,23.95
2022-08-05T07:54:10.127Z,23.93
2022-08-05T07:55:44.426Z,23.95
2022-08-05T07:57:01.271Z,23.98
2022-08-05T07:57:52.247Z,23.99
2022-08-05T07:58:08.927Z,23.99
2022-08-05T07:59:08.674Z,24.02
2022-08-05T08:00:11.323Z,24.02
2022-08-05T08:01:12.283Z,24.02
2022-08-05T08:02:10.677Z,24.03
2022-08-05T08:03:14.141Z,24.05
2022-08-05T08:04:08.352Z,24.01
2022-08-05T08:05:08.338Z,24.03
2022-08-05T08:06:08.324Z,24.05
2022-08-05T08:07:08.308Z,24.02
2022-08-05T08:08:12.298Z,24.03
2022-08-05T08:09:08.295Z,24.01
2022-08-05T08:10:08.301Z,24.02
2022-08-05T08:11:08.770Z,24.02
2022-08-05T08:12:19.208Z,24.02
2022-08-05T08:13:08.258Z,24.02
2022-08-05T08:14:08.253Z,24.03
2022-08-05T08:15:14.122Z,24.01
2022-08-05T08:16:49.993Z,24.02
2022-08-05T08:17:08.212Z,24.03
2022-08-05T08:18:14.190Z,24.03
2022-08-05T08:19:08.186Z,24.03
2022-08-05T08:20:44.542Z,24.05
2022-08-05T08:21:09.866Z,24.03
2022-08-05T08:22:09.055Z,24.02
2022-08-05T08:23:11.642Z,24.06
2022-08-05T08:24:13.738Z,24.05
2022-08-05T08:25:16.471Z,24.05
2022-08-05T08:26:08.123Z,24.10
2022-08-05T08:27:08.098Z,24.08
2022-08-05T08:28:11.439Z,24.10
2022-08-05T08:30:03.338Z,24.11
2022-08-05T08:30:29.658Z,24.13
2022-08-05T08:31:08.116Z,24.14
2022-08-05T08:32:10.816Z,24.16
2022-08-05T08:33:08.261Z,24.14
2022-08-05T08:34:08.015Z,24.14
2022-08-05T08:35:13.611Z,24.11
2022-08-05T08:36:37.584Z,24.16
2022-08-05T08:37:07.999Z,24.16
2022-08-05T08:38:07.976Z,24.20
2022-08-05T08:39:14.947Z,24.20
2022-08-05T08:40:07.953Z,24.20
2022-08-05T08:41:07.947Z,24.21
2022-08-05T08:42:15.258Z,24.24
2022-08-05T08:45:17.182Z,24.26
2022-08-05T08:45:29.649Z,24.28
2022-08-05T08:45:35.333Z,24.30
2022-08-05T08:46:35.322Z,24.33
2022-08-05T08:48:06.357Z,24.33
2022-08-05T08:49:03.323Z,24.35
2022-08-05T08:50:22.627Z,24.32
2022-08-05T08:51:03.410Z,24.33
2022-08-05T08:52:04.085Z,24.36
2022-08-05T08:52:36.156Z,24.39
2022-08-05T08:53:35.266Z,24.40
2022-08-05T08:54:36.522Z,24.47
2022-08-05T08:56:03.117Z,24.47
2022-08-05T08:56:35.229Z,24.48
2022-08-05T08:57:35.206Z,24.50
2022-08-05T08:58:43.414Z,24.50
2022-08-05T08:59:35.204Z,24.55
2022-08-05T09:00:35.234Z,24.57
2022-08-05T09:01:35.160Z,24.58
2022-08-05T09:02:35.170Z,24.60
2022-08-05T09:03:45.043Z,24.63
2022-08-05T09:04:35.137Z,24.65
2022-08-05T09:05:38.258Z,24.65
2022-08-05T09:06:36.217Z,24.65
2022-08-05T09:07:39.498Z,24.69
2022-08-05T09:08:35.087Z,24.70
2022-08-05T09:09:35.808Z,24.74
2022-08-05T09:10:35.064Z,24.77
2022-08-05T09:11:51.580Z,24.76
2022-08-05T09:12:35.403Z,24.76
2022-08-05T09:14:09.209Z,24.76
2022-08-05T09:14:58.065Z,24.74
2022-08-05T09:15:37.049Z,24.73
2022-08-05T09:16:34.986Z,24.73
2022-08-05T09:17:42.927Z,24.73
2022-08-05T09:18:35.016Z,24.73
2022-08-05T09:19:36.826Z,24.73
2022-08-05T09:20:37.468Z,24.76
2022-08-05T09:22:22.475Z,24.74
2022-08-05T09:22:35.521Z,24.74
2022-08-05T09:23:37.210Z,24.76
2022-08-05T09:24:34.916Z,24.78
2022-08-05T09:26:01.374Z,24.80
2022-08-05T09:26:34.893Z,24.80
2022-08-05T09:28:05.743Z,24.84
2022-08-05T09:28:35.110Z,24.84
2022-08-05T09:29:34.871Z,24.85
2022-08-05T09:30:34.850Z,24.86
2022-08-05T09:32:40.811Z,24.88
2022-08-05T09:32:51.681Z,24.91
2022-08-05T09:33:35.391Z,24.96
2022-08-05T09:34:34.801Z,24.98
2022-08-05T09:35:34.794Z,24.99
2022-08-05T09:36:34.773Z,25.01
2022-08-05T09:38:16.773Z,25.01
2022-08-05T09:38:34.810Z,25.04
2022-08-05T09:39:45.274Z,25.04
2022-08-05T09:40:34.739Z,25.06
2022-08-05T09:41:38.269Z,25.04
2022-08-05T09:42:35.186Z,25.03
2022-08-05T09:43:40.474Z,25.03
2022-08-05T09:44:34.714Z,25.04
2022-08-05T09:46:07.831Z,25.04
2022-08-05T09:46:35.006Z,25.06
2022-08-05T09:47:46.594Z,25.07
2022-08-05T09:48:34.660Z,25.04
2022-08-05T09:49:54.756Z,25.04
2022-08-05T09:50:38.747Z,25.03
2022-08-05T09:51:36.546Z,25.07
2022-08-05T09:52:34.637Z,25.06
2022-08-05T09:53:54.575Z,25.06
2022-08-05T09:54:34.599Z,25.03
2022-08-05T09:55:58.453Z,24.98
2022-08-05T09:56:34.609Z,24.96
2022-08-05T09:57:35.353Z,24.95
2022-08-05T09:58:34.562Z,24.95
2022-08-05T09:59:36.929Z,24.98
2022-08-05T10:00:34.528Z,24.99
2022-08-05T10:01:34.517Z,25.07
2022-08-05T10:02:34.575Z,25.10
2022-08-05T10:03:56.640Z,25.13
2022-08-05T10:04:34.864Z,25.16
2022-08-05T10:05:34.465Z,25.17
2022-08-05T10:06:34.480Z,25.18
2022-08-05T10:08:11.234Z,25.21
2022-08-05T10:08:42.442Z,25.16
2022-08-05T10:09:44.857Z,25.16
2022-08-05T10:10:34.431Z,25.17
2022-08-05T10:11:35.329Z,25.18
2022-08-05T10:12:34.423Z,25.22
2022-08-05T10:13:47.476Z,25.16
2022-08-05T10:14:34.394Z,25.11
2022-08-05T10:15:34.612Z,25.11
2022-08-05T10:16:41.561Z,25.11
2022-08-05T10:17:39.840Z,25.14
2022-08-05T10:18:34.356Z,25.17
2022-08-05T10:20:03.753Z,25.18
2022-08-05T10:20:34.317Z,25.21
2022-08-05T10:21:35.283Z,25.22
2022-08-05T10:22:34.830Z,25.21
2022-08-05T10:23:59.645Z,25.22
2022-08-05T10:24:34.277Z,25.25
2022-08-05T10:25:34.269Z,25.31
2022-08-05T10:26:34.247Z,25.32
2022-08-05T10:28:16.645Z,25.36
2022-08-05T10:28:34.288Z,25.40
2022-08-05T10:30:06.370Z,25.41
2022-08-05T10:32:49.648Z,25.46
2022-08-05T10:33:02.550Z,25.50
2022-08-05T10:33:09.291Z,25.54
2022-08-05T10:34:09.100Z,25.50
2022-08-05T10:35:07.835Z,25.43
2022-08-05T10:36:07.835Z,25.40
2022-08-05T10:37:07.817Z,25.40
2022-08-05T10:38:08.266Z,25.38
2022-08-05T10:39:11.745Z,25.40
2022-08-05T10:40:17.895Z,25.40
2022-08-05T10:41:07.867Z,25.40
2022-08-05T10:42:07.767Z,25.43
2022-08-05T10:43:07.769Z,25.47
2022-08-05T10:44:07.781Z,25.47
2022-08-05T10:45:21.065Z,25.47
2022-08-05T10:46:07.757Z,25.48
2022-08-05T10:47:10.265Z,25.48
2022-08-05T10:48:31.305Z,25.47
2022-08-05T10:49:09.766Z,25.50
2022-08-05T10:50:31.515Z,25.51
2022-08-05T10:51:21.733Z,25.55
2022-08-05T10:52:10.337Z,25.59
2022-08-05T10:53:07.649Z,25.65
2022-08-05T10:54:28.459Z,25.68
2022-08-05T10:55:07.632Z,25.70
2022-08-05T10:56:21.546Z,25.75
2022-08-05T10:57:07.644Z,25.77
2022-08-05T10:58:07.594Z,25.83
2022-08-05T11:00:01.170Z,25.84
2022-08-05T11:00:18.202Z,25.85
2022-08-05T11:01:07.568Z,25.90
2022-08-05T11:02:07.709Z,25.95
2022-08-05T11:03:25.599Z,25.98
2022-08-05T11:04:07.558Z,25.99
2022-08-05T11:05:07.525Z,26.00
2022-08-05T11:06:08.477Z,26.00
2022-08-05T11:07:07.520Z,26.02
2022-08-05T11:08:33.832Z,26.05
2022-08-05T11:09:07.491Z,26.07
2022-08-05T11:10:10.040Z,26.10
2022-08-05T11:11:14.626Z,26.13
2022-08-05T11:12:07.462Z,26.10
2022-08-05T11:13:07.432Z,26.10
2022-08-05T11:14:07.445Z,26.15
2022-08-05T11:15:19.407Z,26.13
2022-08-05T11:16:07.585Z,26.16
2022-08-05T11:17:57.725Z,26.15
2022-08-05T11:18:13.561Z,26.18
2022-08-05T11:20:10.192Z,26.21
2022-08-05T11:20:18.573Z,26.19
2022-08-05T11:21:11.669Z,26.19
2022-08-05T11:22:07.341Z,26.19
2022-08-05T11:23:08.969Z,26.19
2022-08-05T11:24:29.736Z,26.18
2022-08-05T11:26:02.909Z,26.15
2022-08-05T11:26:11.263Z,26.15
2022-08-05T11:27:07.290Z,26.10
2022-08-05T11:28:07.291Z,26.06
2022-08-05T11:29:12.605Z,26.03
2022-08-05T11:30:07.310Z,26.02
2022-08-05T11:31:07.251Z,26.00
2022-08-05T11:32:07.245Z,26.00
2022-08-05T11:33:07.221Z,25.93
2022-08-05T11:34:08.140Z,25.87
2022-08-05T11:35:07.210Z,25.87
2022-08-05T11:36:07.925Z,25.87
2022-08-05T11:38:29.985Z,25.90
2022-08-05T11:38:45.525Z,25.88
2022-08-05T11:39:07.203Z,25.90
2022-08-05T11:40:07.240Z,25.95
2022-08-05T11:41:12.905Z,25.96
2022-08-05T11:42:07.173Z,25.96
2022-08-05T11:43:07.121Z,25.99
2022-08-05T11:44:08.468Z,25.99
2022-08-05T11:45:26.803Z,26.02
2022-08-05T11:46:32.194Z,26.00
2022-08-05T11:47:11.000Z,26.02
2022-08-05T11:48:07.066Z,26.06
2022-08-05T11:49:08.043Z,26.07
2022-08-05T11:50:07.035Z,26.09
2022-08-05T11:51:07.043Z,26.16
2022-08-05T11:52:08.735Z,26.22
2022-08-05T11:53:09.883Z,26.26
2022-08-05T11:54:06.998Z,26.29
2022-08-05T11:55:07.301Z,26.33
2022-08-05T11:56:06.989Z,26.37
2022-08-05T11:57:08.061Z,26.43
2022-08-05T11:58:10.759Z,26.48
2022-08-05T11:59:13.820Z,26.51
2022-08-05T12:00:06.968Z,26.58
2022-08-05T12:01:08.455Z,26.60
2022-08-05T12:02:06.913Z,26.65
2022-08-05T12:03:06.924Z,26.73
2022-08-05T12:04:06.890Z,26.78
2022-08-05T12:05:17.862Z,26.84
2022-08-05T12:06:10.215Z,26.89
2022-08-05T12:07:06.866Z,26.90
2022-08-05T12:08:09.790Z,26.90
2022-08-05T12:09:06.834Z,26.93
2022-08-05T12:10:09.565Z,26.92
2022-08-05T12:11:06.823Z,26.83
2022-08-05T12:12:06.819Z,26.81
2022-08-05T12:13:14.615Z,26.84
2022-08-05T12:14:06.830Z,26.90
2022-08-05T12:15:06.771Z,26.96
2022-08-05T12:16:15.255Z,26.99
2022-08-05T12:18:00.647Z,27.07
2022-08-05T12:18:10.754Z,27.08
2022-08-05T12:19:08.382Z,27.10
2022-08-05T12:20:26.399Z,27.14
2022-08-05T12:21:06.715Z,27.21
2022-08-05T12:22:09.664Z,27.33
2022-08-05T12:23:06.691Z,27.40
2022-08-05T12:24:06.876Z,27.44
2022-08-05T12:25:06.669Z,27.45
2022-08-05T12:26:06.892Z,27.40
2022-08-05T12:27:09.549Z,27.42
2022-08-05T12:28:06.649Z,27.45
2022-08-05T12:29:09.266Z,27.44
2022-08-05T12:30:06.687Z,27.40
2022-08-05T12:31:06.604Z,27.45
2022-08-05T12:32:07.397Z,27.45
2022-08-05T12:33:07.269Z,27.51
2022-08-05T12:34:06.594Z,27.60
2022-08-05T12:35:06.564Z,27.64
2022-08-05T12:36:07.146Z,27.60
2022-08-05T12:37:06.541Z,27.63
2022-08-05T12:38:06.519Z,27.60
2022-08-05T12:39:06.910Z,27.59
2022-08-05T12:40:11.004Z,27.58
2022-08-05T12:41:12.455Z,27.59
2022-08-05T12:42:06.501Z,27.60
2022-08-05T12:43:06.477Z,27.63
2022-08-05T12:44:06.472Z,27.64
2022-08-05T12:45:08.935Z,27.60
2022-08-05T12:46:06.466Z,27.60
2022-08-05T12:47:06.435Z,27.63
2022-08-05T12:48:27.173Z,27.63
2022-08-05T12:49:13.449Z,27.67
2022-08-05T12:50:06.561Z,27.71
2022-08-05T12:51:06.389Z,27.74
2022-08-05T12:52:12.789Z,27.74
2022-08-05T12:53:06.376Z,27.75
2022-08-05T12:54:16.895Z,27.73
2022-08-05T12:55:06.390Z,27.77
2022-08-05T12:56:06.331Z,27.73
2022-08-05T12:57:09.617Z,27.74
2022-08-05T12:58:52.568Z,27.68
2022-08-05T12:59:09.411Z,27.60
2022-08-05T13:01:57.625Z,27.54
2022-08-05T13:02:10.755Z,27.51
2022-08-05T13:02:15.805Z,27.51
2022-08-05T13:03:15.817Z,27.60
2022-08-05T13:04:20.586Z,27.65
2022-08-05T13:05:15.731Z,27.73
2022-08-05T13:06:15.928Z,27.78
2022-08-05T13:07:35.808Z,27.82
2022-08-05T13:08:17.159Z,27.87
2022-08-05T13:09:15.623Z,27.90
2022-08-05T13:10:19.689Z,27.85
2022-08-05T13:11:15.596Z,27.83
2022-08-05T13:12:16.337Z,27.85
2022-08-05T13:14:05.926Z,27.83
2022-08-05T13:14:15.566Z,27.83
2022-08-05T13:15:17.987Z,27.83
2022-08-05T13:16:16.762Z,27.78
2022-08-05T13:17:15.549Z,27.77
2022-08-05T13:18:19.383Z,27.73
2022-08-05T13:19:16.005Z,27.71
2022-08-05T13:20:19.208Z,27.65
2022-08-05T13:21:15.488Z,27.59
2022-08-05T13:22:28.002Z,27.52
2022-08-05T13:23:16.312Z,27.45
2022-08-05T13:24:15.474Z,27.36
2022-08-05T13:25:19.139Z,27.30
2022-08-05T13:26:15.436Z,27.25
2022-08-05T13:27:20.871Z,27.20
2022-08-05T13:28:15.428Z,27.18
2022-08-05T13:29:18.831Z,27.17
2022-08-05T13:30:34.893Z,27.17
2022-08-05T13:31:15.402Z,27.14
2022-08-05T13:32:15.383Z,27.10
2022-08-05T13:34:21.627Z,27.10
2022-08-05T13:34:29.912Z,27.14
2022-08-05T13:35:15.341Z,27.14
2022-08-05T13:36:15.325Z,27.07
2022-08-05T13:37:15.314Z,27.05
2022-08-05T13:38:28.214Z,26.97
2022-08-05T13:40:12.828Z,26.85
2022-08-05T13:40:35.740Z,26.81
2022-08-05T13:41:15.367Z,26.83
2022-08-05T13:42:15.453Z,26.78
2022-08-05T13:43:15.274Z,26.74
2022-08-05T13:44:15.243Z,26.70
2022-08-05T13:45:20.766Z,26.70
2022-08-05T13:46:15.257Z,26.59
2022-08-05T13:47:36.168Z,26.48
2022-08-05T13:48:58.155Z,26.47
2022-08-05T13:49:15.196Z,26.44
2022-08-05T13:50:16.945Z,26.43
2022-08-05T13:51:15.163Z,26.38
2022-08-05T13:52:15.179Z,26.37
2022-08-05T13:53:15.757Z,26.38
2022-08-05T13:54:16.013Z,26.33
2022-08-05T13:55:40.699Z,26.26
2022-08-05T13:56:18.371Z,26.26
2022-08-05T13:57:15.179Z,26.23
2022-08-05T13:58:15.115Z,26.21
2022-08-05T13:59:19.306Z,26.07
2022-08-05T14:00:15.063Z,25.95
2022-08-05T14:01:15.060Z,25.83
2022-08-05T14:02:20.054Z,25.69
2022-08-05T14:03:15.132Z,25.60
2022-08-05T14:04:15.056Z,25.53
2022-08-05T14:05:15.187Z,25.48
2022-08-05T14:06:26.111Z,25.38
2022-08-05T14:07:25.439Z,25.28
2022-08-05T14:08:20.222Z,25.23
2022-08-05T14:09:14.986Z,25.22
2022-08-05T14:10:18.946Z,25.23
2022-08-05T14:11:21.069Z,25.22
2022-08-05T14:12:17.560Z,25.22
2022-08-05T14:13:15.278Z,25.25
2022-08-05T14:14:14.911Z,25.28
2022-08-05T14:16:09.127Z,25.23
2022-08-05T14:16:16.876Z,25.18
2022-08-05T14:17:28.397Z,25.10
2022-08-05T14:18:18.039Z,25.07
2022-08-05T14:19:14.871Z,25.11
2022-08-05T14:20:17.488Z,25.13
2022-08-05T14:22:07.883Z,25.14
2022-08-05T14:22:16.004Z,25.18
2022-08-05T14:23:19.218Z,25.16
2022-08-05T14:24:14.853Z,25.17
2022-08-05T14:25:19.154Z,25.23
2022-08-05T14:26:35.479Z,25.29
2022-08-05T14:27:17.509Z,25.32
2022-08-05T14:28:26.256Z,25.32
2022-08-05T14:29:16.567Z,25.35
2022-08-05T14:30:20.450Z,25.40
2022-08-05T14:31:17.552Z,25.43
2022-08-05T14:32:26.573Z,25.40
2022-08-05T14:33:16.284Z,25.47
2022-08-05T14:34:14.727Z,25.50
2022-08-05T14:35:14.701Z,25.58
2022-08-05T14:36:14.705Z,25.62
2022-08-05T14:37:14.668Z,25.69
2022-08-05T14:38:31.764Z,25.78
2022-08-05T14:39:14.693Z,25.93
2022-08-05T14:40:16.861Z,26.02
2022-08-05T14:41:17.637Z,26.06
2022-08-05T14:42:29.244Z,26.10
2022-08-05T14:43:14.617Z,26.16
2022-08-05T14:44:20.214Z,26.22
2022-08-05T14:45:14.612Z,26.25
2022-08-05T14:46:14.650Z,26.28
2022-08-05T14:47:14.574Z,26.33
2022-08-05T14:48:25.709Z,26.33
2022-08-05T14:49:14.551Z,26.28
2022-08-05T14:50:19.028Z,26.16
2022-08-05T14:51:16.028Z,26.06
2022-08-05T14:52:30.591Z,25.93
2022-08-05T14:53:14.527Z,25.81
2022-08-05T14:54:30.042Z,25.66
2022-08-05T14:55:15.357Z,25.55
2022-08-05T14:56:14.489Z,25.51
2022-08-05T14:57:14.462Z,25.46
2022-08-05T14:58:14.644Z,25.36
2022-08-05T14:59:14.460Z,25.36
2022-08-05T15:00:14.424Z,25.36
2022-08-05T15:01:15.975Z,25.35
2022-08-05T15:02:15.972Z,25.33
2022-08-05T15:03:14.416Z,25.32
2022-08-05T15:04:14.399Z,25.26
2022-08-05T15:05:14.400Z,25.21
2022-08-05T15:06:15.671Z,25.18
2022-08-05T15:08:11.470Z,25.16
2022-08-05T15:08:57.657Z,25.11
2022-08-05T15:09:14.339Z,25.03
2022-08-05T15:10:14.326Z,25.01
2022-08-05T15:11:14.329Z,24.95
2022-08-05T15:12:17.021Z,24.95
2022-08-05T15:13:14.395Z,24.98
2022-08-05T15:14:33.359Z,24.95
2022-08-05T15:15:15.617Z,24.95
2022-08-05T15:16:14.272Z,24.92
2022-08-05T15:17:46.190Z,24.92
2022-08-05T15:18:14.731Z,24.88
2022-08-05T15:19:23.282Z,24.88
2022-08-05T15:20:18.657Z,24.89
2022-08-05T15:21:14.215Z,24.89
2022-08-05T15:22:14.196Z,24.91
2022-08-05T15:23:14.437Z,24.88
2022-08-05T15:24:14.164Z,24.86
2022-08-05T15:25:14.666Z,24.86
2022-08-05T15:26:14.164Z,24.86
2022-08-05T15:27:14.232Z,24.84
2022-08-05T15:28:14.802Z,24.84
2022-08-05T15:29:14.123Z,24.81
2022-08-05T15:30:16.373Z,24.77
2022-08-05T15:31:14.093Z,24.76
2022-08-05T15:32:14.085Z,24.74
2022-08-05T15:33:56.790Z,24.73
2022-08-05T15:34:31.966Z,24.70
2022-08-05T15:35:14.840Z,24.68
2022-08-05T15:36:17.638Z,24.66
2022-08-05T15:37:14.699Z,24.65
2022-08-05T15:38:36.020Z,24.65
2022-08-05T15:41:01.898Z,24.61
2022-08-05T15:41:22.210Z,24.57
2022-08-05T15:41:55.517Z,24.53
2022-08-05T15:42:56.868Z,24.48
2022-08-05T15:43:20.150Z,24.47
2022-08-05T15:44:19.281Z,24.43
2022-08-05T15:45:19.247Z,24.40
2022-08-05T15:46:19.297Z,24.38
2022-08-05T15:47:19.233Z,24.32
2022-08-05T15:48:19.228Z,24.24
2022-08-05T15:49:27.285Z,24.20
2022-08-05T15:50:19.214Z,24.18
2022-08-05T15:51:19.201Z,24.14
2022-08-05T15:52:52.275Z,24.10
2022-08-05T15:53:19.167Z,24.08
2022-08-05T15:54:19.149Z,24.05
2022-08-05T15:55:19.137Z,24.01
2022-08-05T15:56:19.147Z,23.96
2022-08-05T15:57:19.144Z,23.95
2022-08-05T15:58:19.115Z,23.91
2022-08-05T15:59:21.602Z,23.88
2022-08-05T16:00:26.509Z,23.87
2022-08-05T16:01:20.181Z,23.87
2022-08-05T16:02:19.834Z,23.81
2022-08-05T16:03:19.089Z,23.81
2022-08-05T16:04:19.050Z,23.81
2022-08-05T16:05:19.035Z,23.80
2022-08-05T16:06:20.315Z,23.78
2022-08-05T16:07:19.016Z,23.76
2022-08-05T16:08:19.026Z,23.73
2022-08-05T16:09:19.023Z,23.66
2022-08-05T16:10:25.340Z,23.63
2022-08-05T16:11:20.796Z,23.61
2022-08-05T16:12:21.722Z,23.55
2022-08-05T16:13:23.635Z,23.54
2022-08-05T16:14:18.972Z,23.47
2022-08-05T16:15:18.968Z,23.50
2022-08-05T16:16:21.270Z,23.47
2022-08-05T16:17:18.913Z,23.47
2022-08-05T16:18:18.893Z,23.44
2022-08-05T16:20:03.390Z,23.44
2022-08-05T16:20:19.745Z,23.40
2022-08-05T16:21:18.869Z,23.40
2022-08-05T16:22:18.860Z,23.40
2022-08-05T16:23:18.853Z,23.43
2022-08-05T16:24:41.668Z,23.40
2022-08-05T16:25:18.829Z,23.37
2022-08-05T16:26:18.834Z,23.37
2022-08-05T16:27:18.827Z,23.34
2022-08-05T16:28:18.792Z,23.36
2022-08-05T16:29:20.034Z,23.36
2022-08-05T16:30:25.468Z,23.37
2022-08-05T16:31:18.767Z,23.36
2022-08-05T16:32:28.250Z,23.34
2022-08-05T16:33:18.729Z,23.36
2022-08-05T16:34:18.758Z,23.32
2022-08-05T16:35:18.728Z,23.34
2022-08-05T16:36:20.477Z,23.32
2022-08-05T16:38:11.925Z,23.28
2022-08-05T16:38:29.389Z,23.28
2022-08-05T16:39:18.761Z,23.31
2022-08-05T16:40:26.742Z,23.32
2022-08-05T16:42:12.344Z,23.28
2022-08-05T16:42:28.182Z,23.31
2022-08-05T16:43:18.654Z,23.24
2022-08-05T16:44:18.629Z,23.21
2022-08-05T16:46:04.753Z,23.23